sensor_id;sensor_type;location;lat;lon;timestamp;P1;durP1;ratioP1;P2;durP2;ratioP2
74959;SDS011;63518;49.572;1.106;2022-10-04T00:00:24;8.98;;;3.63;;
74959;SDS011;63518;49.572;1.106;2022-10-04T00:03:10;10.73;;;3.55;;
74959;SDS011;63518;49.572;1.106;2022-10-04T00:05:51;10.02;;;3.22;;
74959;SDS011;63518;49.572;1.106;2022-10-04T00:11:03;10.20;;;3.33;;
74959;SDS011;63518;49.572;1.106;2022-10-04T00:13:31;8.15;;;3.35;;
74959;SDS011;63518;49.572;1.106;2022-10-04T00:16:00;8.90;;;3.22;;
74959;SDS011;63518;49.572;1.106;2022-10-04T00:18:29;9.20;;;3.75;;
74959;SDS011;63518;49.572;1.106;2022-10-04T00:21:02;10.32;;;3.63;;
74959;SDS011;63518;49.572;1.106;2022-10-04T00:26:12;9.23;;;3.45;;
74959;SDS011;63518;49.572;1.106;2022-10-04T00:29:22;10.93;;;3.35;;
74959;SDS011;63518;49.572;1.106;2022-10-04T00:34:45;10.25;;;3.75;;
74959;SDS011;63518;49.572;1.106;2022-10-04T00:37:15;10.60;;;3.72;;
74959;SDS011;63518;49.572;1.106;2022-10-04T00:39:46;10.02;;;3.40;;
74959;SDS011;63518;49.572;1.106;2022-10-04T00:45:34;10.63;;;3.10;;
74959;SDS011;63518;49.572;1.106;2022-10-04T00:51:09;8.70;;;3.72;;
74959;SDS011;63518;49.572;1.106;2022-10-04T00:53:46;7.03;;;3.05;;
74959;SDS011;63518;49.572;1.106;2022-10-04T00:56:24;7.75;;;2.83;;
74959;SDS011;63518;49.572;1.106;2022-10-04T01:01:24;9.07;;;3.70;;
74959;SDS011;63518;49.572;1.106;2022-10-04T01:03:54;8.55;;;2.83;;
74959;SDS011;63518;49.572;1.106;2022-10-04T01:06:23;9.48;;;3.75;;
74959;SDS011;63518;49.572;1.106;2022-10-04T01:08:53;9.85;;;3.78;;
74959;SDS011;63518;49.572;1.106;2022-10-04T01:11:29;10.32;;;3.40;;
74959;SDS011;63518;49.572;1.106;2022-10-04T01:14:12;9.10;;;3.30;;
74959;SDS011;63518;49.572;1.106;2022-10-04T01:16:45;11.68;;;3.90;;
74959;SDS011;63518;49.572;1.106;2022-10-04T01:24:41;9.45;;;4.18;;
74959;SDS011;63518;49.572;1.106;2022-10-04T01:29:57;8.23;;;3.40;;
74959;SDS011;63518;49.572;1.106;2022-10-04T01:32:25;10.65;;;3.80;;
74959;SDS011;63518;49.572;1.106;2022-10-04T01:34:54;7.60;;;3.10;;
74959;SDS011;63518;49.572;1.106;2022-10-04T01:37:21;8.85;;;3.42;;
74959;SDS011;63518;49.572;1.106;2022-10-04T01:39:48;12.13;;;3.83;;
74959;SDS011;63518;49.572;1.106;2022-10-04T01:42:17;9.45;;;2.75;;
74959;SDS011;63518;49.572;1.106;2022-10-04T01:44:53;10.77;;;3.55;;
74959;SDS011;63518;49.572;1.106;2022-10-04T01:50:05;11.88;;;4.20;;
74959;SDS011;63518;49.572;1.106;2022-10-04T01:52:42;10.00;;;3.92;;
74959;SDS011;63518;49.572;1.106;2022-10-04T01:55:13;11.05;;;3.75;;
74959;SDS011;63518;49.572;1.106;2022-10-04T01:57:53;10.07;;;3.97;;
74959;SDS011;63518;49.572;1.106;2022-10-04T02:00:26;10.27;;;4.20;;
74959;SDS011;63518;49.572;1.106;2022-10-04T02:02:56;13.02;;;3.83;;
74959;SDS011;63518;49.572;1.106;2022-10-04T02:05:32;11.02;;;3.78;;
74959;SDS011;63518;49.572;1.106;2022-10-04T02:08:05;9.57;;;3.38;;
74959;SDS011;63518;49.572;1.106;2022-10-04T02:10:36;10.25;;;3.38;;
74959;SDS011;63518;49.572;1.106;2022-10-04T02:13:09;11.63;;;3.80;;
74959;SDS011;63518;49.572;1.106;2022-10-04T02:15:40;11.73;;;3.78;;
74959;SDS011;63518;49.572;1.106;2022-10-04T02:18:08;10.75;;;3.33;;
74959;SDS011;63518;49.572;1.106;2022-10-04T02:23:07;8.77;;;3.78;;
74959;SDS011;63518;49.572;1.106;2022-10-04T02:25:36;9.10;;;3.40;;
74959;SDS011;63518;49.572;1.106;2022-10-04T02:28:04;8.43;;;3.20;;
74959;SDS011;63518;49.572;1.106;2022-10-04T02:30:40;10.23;;;4.00;;
74959;SDS011;63518;49.572;1.106;2022-10-04T02:33:09;9.18;;;2.70;;
74959;SDS011;63518;49.572;1.106;2022-10-04T02:35:42;10.90;;;3.95;;
74959;SDS011;63518;49.572;1.106;2022-10-04T02:38:16;12.20;;;3.55;;
74959;SDS011;63518;49.572;1.106;2022-10-04T02:43:53;7.28;;;2.90;;
74959;SDS011;63518;49.572;1.106;2022-10-04T02:46:27;11.18;;;3.80;;
74959;SDS011;63518;49.572;1.106;2022-10-04T02:49:25;10.65;;;2.75;;
74959;SDS011;63518;49.572;1.106;2022-10-04T02:54:48;9.25;;;3.22;;
74959;SDS011;63518;49.572;1.106;2022-10-04T02:57:24;9.90;;;3.38;;
74959;SDS011;63518;49.572;1.106;2022-10-04T02:59:54;9.27;;;3.35;;
74959;SDS011;63518;49.572;1.106;2022-10-04T03:02:36;11.20;;;3.17;;
74959;SDS011;63518;49.572;1.106;2022-10-04T03:05:08;11.20;;;3.25;;
74959;SDS011;63518;49.572;1.106;2022-10-04T03:07:39;11.45;;;3.20;;
74959;SDS011;63518;49.572;1.106;2022-10-04T03:10:10;8.30;;;2.60;;
74959;SDS011;63518;49.572;1.106;2022-10-04T03:12:39;8.68;;;3.13;;
74959;SDS011;63518;49.572;1.106;2022-10-04T03:15:08;7.50;;;3.17;;
74959;SDS011;63518;49.572;1.106;2022-10-04T03:17:38;9.27;;;3.30;;
74959;SDS011;63518;49.572;1.106;2022-10-04T03:20:07;8.85;;;2.92;;
74959;SDS011;63518;49.572;1.106;2022-10-04T03:22:40;9.20;;;2.97;;
74959;SDS011;63518;49.572;1.106;2022-10-04T03:25:17;9.60;;;3.38;;
74959;SDS011;63518;49.572;1.106;2022-10-04T03:27:48;11.38;;;3.88;;
74959;SDS011;63518;49.572;1.106;2022-10-04T03:30:18;6.78;;;2.42;;
74959;SDS011;63518;49.572;1.106;2022-10-04T03:32:46;9.13;;;2.72;;
74959;SDS011;63518;49.572;1.106;2022-10-04T03:35:27;12.82;;;3.92;;
74959;SDS011;63518;49.572;1.106;2022-10-04T03:37:58;10.38;;;3.72;;
74959;SDS011;63518;49.572;1.106;2022-10-04T03:40:29;11.32;;;3.47;;
74959;SDS011;63518;49.572;1.106;2022-10-04T03:42:58;10.57;;;3.30;;
74959;SDS011;63518;49.572;1.106;2022-10-04T03:45:29;7.85;;;3.42;;
74959;SDS011;63518;49.572;1.106;2022-10-04T03:48:02;8.80;;;3.05;;
74959;SDS011;63518;49.572;1.106;2022-10-04T03:50:39;8.15;;;3.35;;
74959;SDS011;63518;49.572;1.106;2022-10-04T03:56:02;7.78;;;2.78;;
74959;SDS011;63518;49.572;1.106;2022-10-04T03:58:37;9.95;;;3.63;;
74959;SDS011;63518;49.572;1.106;2022-10-04T04:06:29;8.07;;;3.25;;
74959;SDS011;63518;49.572;1.106;2022-10-04T04:09:39;9.73;;;2.75;;
74959;SDS011;63518;49.572;1.106;2022-10-04T04:12:24;8.20;;;2.65;;
74959;SDS011;63518;49.572;1.106;2022-10-04T04:15:14;10.52;;;3.42;;
74959;SDS011;63518;49.572;1.106;2022-10-04T04:17:47;9.23;;;3.83;;
74959;SDS011;63518;49.572;1.106;2022-10-04T04:20:25;11.90;;;4.05;;
74959;SDS011;63518;49.572;1.106;2022-10-04T04:23:21;10.50;;;4.15;;
74959;SDS011;63518;49.572;1.106;2022-10-04T04:25:46;7.15;;;2.80;;
74959;SDS011;63518;49.572;1.106;2022-10-04T04:31:02;7.82;;;3.03;;
74959;SDS011;63518;49.572;1.106;2022-10-04T04:36:30;11.50;;;3.88;;
74959;SDS011;63518;49.572;1.106;2022-10-04T04:39:14;10.32;;;3.78;;
74959;SDS011;63518;49.572;1.106;2022-10-04T04:42:04;8.93;;;3.58;;
74959;SDS011;63518;49.572;1.106;2022-10-04T04:44:32;12.77;;;4.53;;
74959;SDS011;63518;49.572;1.106;2022-10-04T04:46:59;31.23;;;10.45;;
74959;SDS011;63518;49.572;1.106;2022-10-04T04:49:27;10.65;;;4.63;;
74959;SDS011;63518;49.572;1.106;2022-10-04T04:51:56;9.60;;;3.75;;
74959;SDS011;63518;49.572;1.106;2022-10-04T04:54:24;14.93;;;4.93;;
74959;SDS011;63518;49.572;1.106;2022-10-04T04:56:54;12.13;;;4.63;;
74959;SDS011;63518;49.572;1.106;2022-10-04T04:59:23;11.43;;;3.80;;
74959;SDS011;63518;49.572;1.106;2022-10-04T05:04:23;9.90;;;3.00;;
74959;SDS011;63518;49.572;1.106;2022-10-04T05:09:30;10.95;;;4.03;;
74959;SDS011;63518;49.572;1.106;2022-10-04T05:12:06;8.52;;;3.03;;
74959;SDS011;63518;49.572;1.106;2022-10-04T05:14:36;8.68;;;3.47;;
74959;SDS011;63518;49.572;1.106;2022-10-04T05:17:04;6.63;;;2.78;;
74959;SDS011;63518;49.572;1.106;2022-10-04T05:19:33;11.13;;;3.83;;
74959;SDS011;63518;49.572;1.106;2022-10-04T05:22:07;11.90;;;4.72;;
74959;SDS011;63518;49.572;1.106;2022-10-04T05:24:41;11.70;;;3.97;;
74959;SDS011;63518;49.572;1.106;2022-10-04T05:27:14;10.48;;;3.38;;
74959;SDS011;63518;49.572;1.106;2022-10-04T05:35:14;9.50;;;3.70;;
74959;SDS011;63518;49.572;1.106;2022-10-04T05:37:51;12.27;;;4.72;;
74959;SDS011;63518;49.572;1.106;2022-10-04T05:40:42;12.02;;;3.47;;
74959;SDS011;63518;49.572;1.106;2022-10-04T05:43:31;9.68;;;3.83;;
74959;SDS011;63518;49.572;1.106;2022-10-04T05:48:53;10.52;;;3.70;;
74959;SDS011;63518;49.572;1.106;2022-10-04T05:51:27;8.02;;;3.40;;
74959;SDS011;63518;49.572;1.106;2022-10-04T05:53:59;7.18;;;2.72;;
74959;SDS011;63518;49.572;1.106;2022-10-04T05:56:37;12.68;;;4.00;;
74959;SDS011;63518;49.572;1.106;2022-10-04T05:59:31;10.00;;;3.65;;
74959;SDS011;63518;49.572;1.106;2022-10-04T06:02:28;9.82;;;3.38;;
74959;SDS011;63518;49.572;1.106;2022-10-04T06:05:11;8.90;;;3.90;;
74959;SDS011;63518;49.572;1.106;2022-10-04T06:13:25;10.55;;;3.90;;
74959;SDS011;63518;49.572;1.106;2022-10-04T06:18:45;11.95;;;3.58;;
74959;SDS011;63518;49.572;1.106;2022-10-04T06:21:28;13.25;;;4.88;;
74959;SDS011;63518;49.572;1.106;2022-10-04T06:24:10;11.45;;;4.43;;
74959;SDS011;63518;49.572;1.106;2022-10-04T06:26:51;10.07;;;3.22;;
74959;SDS011;63518;49.572;1.106;2022-10-04T06:29:24;12.65;;;4.05;;
74959;SDS011;63518;49.572;1.106;2022-10-04T06:40:35;13.05;;;4.13;;
74959;SDS011;63518;49.572;1.106;2022-10-04T06:46:15;7.82;;;3.78;;
74959;SDS011;63518;49.572;1.106;2022-10-04T06:48:47;6.05;;;2.35;;
74959;SDS011;63518;49.572;1.106;2022-10-04T07:02:18;9.48;;;2.97;;
74959;SDS011;63518;49.572;1.106;2022-10-04T07:07:41;10.57;;;3.85;;
74959;SDS011;63518;49.572;1.106;2022-10-04T07:12:48;7.63;;;2.78;;
74959;SDS011;63518;49.572;1.106;2022-10-04T07:15:25;8.50;;;3.25;;
74959;SDS011;63518;49.572;1.106;2022-10-04T07:18:00;11.10;;;3.75;;
74959;SDS011;63518;49.572;1.106;2022-10-04T07:20:34;11.20;;;4.00;;
74959;SDS011;63518;49.572;1.106;2022-10-04T07:23:13;9.70;;;3.45;;
74959;SDS011;63518;49.572;1.106;2022-10-04T07:25:56;8.45;;;3.40;;
74959;SDS011;63518;49.572;1.106;2022-10-04T07:28:29;10.60;;;3.63;;
74959;SDS011;63518;49.572;1.106;2022-10-04T07:31:23;8.73;;;3.10;;
74959;SDS011;63518;49.572;1.106;2022-10-04T07:33:59;9.40;;;3.55;;
74959;SDS011;63518;49.572;1.106;2022-10-04T07:36:47;10.13;;;3.58;;
74959;SDS011;63518;49.572;1.106;2022-10-04T07:42:30;9.65;;;3.60;;
74959;SDS011;63518;49.572;1.106;2022-10-04T07:47:45;9.50;;;3.30;;
74959;SDS011;63518;49.572;1.106;2022-10-04T07:50:19;13.80;;;3.88;;
74959;SDS011;63518;49.572;1.106;2022-10-04T07:52:51;11.00;;;3.80;;
74959;SDS011;63518;49.572;1.106;2022-10-04T08:00:56;4.30;;;1.45;;
74959;SDS011;63518;49.572;1.106;2022-10-04T08:03:47;7.50;;;2.55;;
74959;SDS011;63518;49.572;1.106;2022-10-04T08:06:36;11.48;;;3.90;;
74959;SDS011;63518;49.572;1.106;2022-10-04T08:20:19;13.15;;;4.78;;
74959;SDS011;63518;49.572;1.106;2022-10-04T09:00:07;7.65;;;3.03;;
74959;SDS011;63518;49.572;1.106;2022-10-04T09:02:45;6.18;;;2.42;;
74959;SDS011;63518;49.572;1.106;2022-10-04T09:13:35;10.10;;;3.75;;
74959;SDS011;63518;49.572;1.106;2022-10-04T09:28:09;7.82;;;3.35;;
74959;SDS011;63518;49.572;1.106;2022-10-04T10:35:56;10.40;;;4.10;;
74959;SDS011;63518;49.572;1.106;2022-10-04T10:38:48;7.10;;;2.65;;
74959;SDS011;63518;49.572;1.106;2022-10-04T10:41:59;8.70;;;3.08;;
74959;SDS011;63518;49.572;1.106;2022-10-04T11:28:27;8.30;;;3.58;;
74959;SDS011;63518;49.572;1.106;2022-10-04T11:33:28;9.65;;;4.97;;
74959;SDS011;63518;49.572;1.106;2022-10-04T11:36:35;9.95;;;4.97;;
74959;SDS011;63518;49.572;1.106;2022-10-04T11:41:46;9.00;;;5.10;;
74959;SDS011;63518;49.572;1.106;2022-10-04T11:52:29;8.95;;;4.90;;
74959;SDS011;63518;49.572;1.106;2022-10-04T12:04:39;8.43;;;4.50;;
74959;SDS011;63518;49.572;1.106;2022-10-04T12:10:14;6.70;;;3.67;;
74959;SDS011;63518;49.572;1.106;2022-10-04T12:24:41;7.35;;;3.90;;
74959;SDS011;63518;49.572;1.106;2022-10-04T12:33:09;7.38;;;3.53;;
74959;SDS011;63518;49.572;1.106;2022-10-04T12:47:31;7.03;;;3.53;;
74959;SDS011;63518;49.572;1.106;2022-10-04T12:56:01;8.02;;;4.00;;
74959;SDS011;63518;49.572;1.106;2022-10-04T12:58:32;8.05;;;4.40;;
74959;SDS011;63518;49.572;1.106;2022-10-04T13:01:20;7.75;;;3.90;;
74959;SDS011;63518;49.572;1.106;2022-10-04T13:24:06;8.73;;;4.20;;
74959;SDS011;63518;49.572;1.106;2022-10-04T13:45:05;8.98;;;4.25;;
74959;SDS011;63518;49.572;1.106;2022-10-04T13:56:14;7.80;;;4.13;;
74959;SDS011;63518;49.572;1.106;2022-10-04T13:59:49;7.33;;;3.70;;
74959;SDS011;63518;49.572;1.106;2022-10-04T14:04:52;6.93;;;3.58;;
74959;SDS011;63518;49.572;1.106;2022-10-04T14:22:01;5.50;;;2.70;;
74959;SDS011;63518;49.572;1.106;2022-10-04T14:45:24;6.20;;;2.47;;
74959;SDS011;63518;49.572;1.106;2022-10-04T15:02:37;5.32;;;2.40;;
74959;SDS011;63518;49.572;1.106;2022-10-04T15:11:36;4.80;;;2.03;;
74959;SDS011;63518;49.572;1.106;2022-10-04T15:14:22;5.00;;;2.38;;
74959;SDS011;63518;49.572;1.106;2022-10-04T15:23:08;4.88;;;2.20;;
74959;SDS011;63518;49.572;1.106;2022-10-04T15:26:36;6.40;;;2.20;;
74959;SDS011;63518;49.572;1.106;2022-10-04T15:31:52;5.00;;;2.30;;
74959;SDS011;63518;49.572;1.106;2022-10-04T15:34:36;5.00;;;2.20;;
74959;SDS011;63518;49.572;1.106;2022-10-04T15:42:14;5.05;;;1.85;;
74959;SDS011;63518;49.572;1.106;2022-10-04T15:45:02;5.32;;;2.00;;
74959;SDS011;63518;49.572;1.106;2022-10-04T15:50:31;5.00;;;2.10;;
74959;SDS011;63518;49.572;1.106;2022-10-04T16:14:58;4.70;;;2.03;;
74959;SDS011;63518;49.572;1.106;2022-10-04T16:25:50;6.45;;;2.33;;
74959;SDS011;63518;49.572;1.106;2022-10-04T16:34:16;5.55;;;2.17;;
74959;SDS011;63518;49.572;1.106;2022-10-04T16:37:11;5.22;;;1.98;;
74959;SDS011;63518;49.572;1.106;2022-10-04T16:42:33;5.50;;;2.45;;
74959;SDS011;63518;49.572;1.106;2022-10-04T16:48:11;7.00;;;2.30;;
74959;SDS011;63518;49.572;1.106;2022-10-04T16:56:28;5.55;;;2.38;;
74959;SDS011;63518;49.572;1.106;2022-10-04T16:59:41;5.10;;;2.20;;
74959;SDS011;63518;49.572;1.106;2022-10-04T17:10:57;6.25;;;2.50;;
74959;SDS011;63518;49.572;1.106;2022-10-04T17:16:38;6.00;;;2.40;;
74959;SDS011;63518;49.572;1.106;2022-10-04T17:22:01;6.10;;;2.70;;
74959;SDS011;63518;49.572;1.106;2022-10-04T17:25:43;5.70;;;2.53;;
74959;SDS011;63518;49.572;1.106;2022-10-04T17:27:50;6.10;;;2.80;;
74959;SDS011;63518;49.572;1.106;2022-10-04T17:30:40;6.25;;;2.70;;
74959;SDS011;63518;49.572;1.106;2022-10-04T17:33:49;5.82;;;1.80;;
74959;SDS011;63518;49.572;1.106;2022-10-04T17:36:49;4.90;;;1.92;;
74959;SDS011;63518;49.572;1.106;2022-10-04T17:47:20;5.30;;;2.00;;
74959;SDS011;63518;49.572;1.106;2022-10-04T17:52:58;4.97;;;1.48;;
74959;SDS011;63518;49.572;1.106;2022-10-04T17:55:52;4.15;;;1.25;;
74959;SDS011;63518;49.572;1.106;2022-10-04T17:58:25;5.15;;;1.52;;
74959;SDS011;63518;49.572;1.106;2022-10-04T18:01:14;4.30;;;1.50;;
74959;SDS011;63518;49.572;1.106;2022-10-04T18:03:52;6.50;;;1.60;;
74959;SDS011;63518;49.572;1.106;2022-10-04T18:12:05;5.78;;;1.73;;
74959;SDS011;63518;49.572;1.106;2022-10-04T18:14:45;5.60;;;1.90;;
74959;SDS011;63518;49.572;1.106;2022-10-04T18:20:06;5.28;;;1.73;;
74959;SDS011;63518;49.572;1.106;2022-10-04T18:22:57;4.93;;;1.65;;
74959;SDS011;63518;49.572;1.106;2022-10-04T18:25:27;5.10;;;1.80;;
74959;SDS011;63518;49.572;1.106;2022-10-04T18:33:14;5.72;;;1.52;;
74959;SDS011;63518;49.572;1.106;2022-10-04T18:35:49;5.45;;;1.73;;
74959;SDS011;63518;49.572;1.106;2022-10-04T18:38:20;6.55;;;1.95;;
74959;SDS011;63518;49.572;1.106;2022-10-04T18:40:57;5.13;;;1.67;;
74959;SDS011;63518;49.572;1.106;2022-10-04T18:46:22;5.07;;;1.90;;
74959;SDS011;63518;49.572;1.106;2022-10-04T18:48:52;5.72;;;1.60;;
74959;SDS011;63518;49.572;1.106;2022-10-04T18:56:39;7.32;;;2.28;;
74959;SDS011;63518;49.572;1.106;2022-10-04T19:00:12;6.15;;;2.25;;
74959;SDS011;63518;49.572;1.106;2022-10-04T19:11:30;4.25;;;1.38;;
74959;SDS011;63518;49.572;1.106;2022-10-04T19:14:09;6.65;;;1.73;;
74959;SDS011;63518;49.572;1.106;2022-10-04T19:30:15;4.45;;;1.60;;
74959;SDS011;63518;49.572;1.106;2022-10-04T19:35:48;5.47;;;1.40;;
74959;SDS011;63518;49.572;1.106;2022-10-04T19:52:46;4.40;;;1.55;;
74959;SDS011;63518;49.572;1.106;2022-10-04T19:58:16;5.25;;;1.52;;
74959;SDS011;63518;49.572;1.106;2022-10-04T20:00:48;5.97;;;1.83;;
74959;SDS011;63518;49.572;1.106;2022-10-04T20:03:16;6.15;;;2.00;;
74959;SDS011;63518;49.572;1.106;2022-10-04T20:05:47;5.03;;;1.50;;
74959;SDS011;63518;49.572;1.106;2022-10-04T20:11:18;3.85;;;1.02;;
74959;SDS011;63518;49.572;1.106;2022-10-04T20:19:14;4.05;;;1.30;;
74959;SDS011;63518;49.572;1.106;2022-10-04T20:21:45;6.55;;;1.50;;
74959;SDS011;63518;49.572;1.106;2022-10-04T20:24:14;4.10;;;1.33;;
74959;SDS011;63518;49.572;1.106;2022-10-04T20:27:04;4.00;;;0.93;;
74959;SDS011;63518;49.572;1.106;2022-10-04T20:32:03;4.60;;;1.45;;
74959;SDS011;63518;49.572;1.106;2022-10-04T20:37:01;4.60;;;1.10;;
74959;SDS011;63518;49.572;1.106;2022-10-04T20:42:09;4.95;;;1.30;;
74959;SDS011;63518;49.572;1.106;2022-10-04T20:52:47;6.45;;;1.40;;
74959;SDS011;63518;49.572;1.106;2022-10-04T20:55:28;3.55;;;1.10;;
74959;SDS011;63518;49.572;1.106;2022-10-04T20:58:04;4.88;;;1.40;;
74959;SDS011;63518;49.572;1.106;2022-10-04T21:00:55;4.38;;;1.42;;
74959;SDS011;63518;49.572;1.106;2022-10-04T21:03:25;4.32;;;1.27;;
74959;SDS011;63518;49.572;1.106;2022-10-04T21:05:58;3.83;;;1.10;;
74959;SDS011;63518;49.572;1.106;2022-10-04T21:08:30;4.93;;;1.17;;
74959;SDS011;63518;49.572;1.106;2022-10-04T21:21:59;3.72;;;1.10;;
74959;SDS011;63518;49.572;1.106;2022-10-04T21:24:40;4.00;;;1.10;;
74959;SDS011;63518;49.572;1.106;2022-10-04T21:30:15;4.40;;;1.33;;
74959;SDS011;63518;49.572;1.106;2022-10-04T21:32:45;3.90;;;1.42;;
74959;SDS011;63518;49.572;1.106;2022-10-04T21:35:12;5.75;;;1.55;;
74959;SDS011;63518;49.572;1.106;2022-10-04T21:37:39;4.22;;;1.40;;
74959;SDS011;63518;49.572;1.106;2022-10-04T21:40:06;3.78;;;1.20;;
74959;SDS011;63518;49.572;1.106;2022-10-04T21:42:33;3.50;;;0.93;;
74959;SDS011;63518;49.572;1.106;2022-10-04T21:45:00;3.80;;;1.05;;
74959;SDS011;63518;49.572;1.106;2022-10-04T21:47:27;3.80;;;1.05;;
74959;SDS011;63518;49.572;1.106;2022-10-04T21:49:54;4.13;;;1.23;;
74959;SDS011;63518;49.572;1.106;2022-10-04T21:52:21;4.35;;;1.02;;
74959;SDS011;63518;49.572;1.106;2022-10-04T21:54:48;3.80;;;0.98;;
74959;SDS011;63518;49.572;1.106;2022-10-04T21:57:15;3.90;;;0.93;;
74959;SDS011;63518;49.572;1.106;2022-10-04T21:59:42;4.30;;;1.23;;
74959;SDS011;63518;49.572;1.106;2022-10-04T22:02:09;3.53;;;1.20;;
74959;SDS011;63518;49.572;1.106;2022-10-04T22:04:36;5.25;;;1.05;;
74959;SDS011;63518;49.572;1.106;2022-10-04T22:07:03;3.70;;;0.90;;
74959;SDS011;63518;49.572;1.106;2022-10-04T22:09:31;4.60;;;1.02;;
74959;SDS011;63518;49.572;1.106;2022-10-04T22:11:59;4.53;;;1.23;;
74959;SDS011;63518;49.572;1.106;2022-10-04T22:14:26;3.47;;;1.23;;
74959;SDS011;63518;49.572;1.106;2022-10-04T22:16:52;6.32;;;1.10;;
74959;SDS011;63518;49.572;1.106;2022-10-04T22:19:21;2.92;;;0.93;;
74959;SDS011;63518;49.572;1.106;2022-10-04T22:21:47;4.00;;;1.08;;
74959;SDS011;63518;49.572;1.106;2022-10-04T22:24:16;3.92;;;0.90;;
74959;SDS011;63518;49.572;1.106;2022-10-04T22:26:44;5.38;;;1.17;;
74959;SDS011;63518;49.572;1.106;2022-10-04T22:29:13;4.43;;;1.13;;
74959;SDS011;63518;49.572;1.106;2022-10-04T22:31:43;3.53;;;0.98;;
74959;SDS011;63518;49.572;1.106;2022-10-04T22:34:16;4.72;;;1.10;;
74959;SDS011;63518;49.572;1.106;2022-10-04T22:36:45;4.80;;;1.23;;
74959;SDS011;63518;49.572;1.106;2022-10-04T22:39:16;2.80;;;0.63;;
74959;SDS011;63518;49.572;1.106;2022-10-04T22:41:45;3.03;;;0.82;;
74959;SDS011;63518;49.572;1.106;2022-10-04T22:44:21;4.65;;;1.10;;
74959;SDS011;63518;49.572;1.106;2022-10-04T22:46:52;3.28;;;0.90;;
74959;SDS011;63518;49.572;1.106;2022-10-04T22:49:23;3.45;;;0.82;;
74959;SDS011;63518;49.572;1.106;2022-10-04T22:51:55;3.20;;;0.90;;
74959;SDS011;63518;49.572;1.106;2022-10-04T22:54:25;2.83;;;0.68;;
74959;SDS011;63518;49.572;1.106;2022-10-04T22:56:56;2.65;;;0.80;;
74959;SDS011;63518;49.572;1.106;2022-10-04T22:59:34;3.55;;;0.80;;
74959;SDS011;63518;49.572;1.106;2022-10-04T23:02:15;2.72;;;0.70;;
74959;SDS011;63518;49.572;1.106;2022-10-04T23:04:49;3.40;;;0.93;;
74959;SDS011;63518;49.572;1.106;2022-10-04T23:07:18;2.78;;;0.70;;
74959;SDS011;63518;49.572;1.106;2022-10-04T23:09:45;1.98;;;0.57;;
74959;SDS011;63518;49.572;1.106;2022-10-04T23:12:13;3.33;;;0.60;;
74959;SDS011;63518;49.572;1.106;2022-10-04T23:14:41;3.03;;;0.82;;
74959;SDS011;63518;49.572;1.106;2022-10-04T23:17:24;2.95;;;0.82;;
74959;SDS011;63518;49.572;1.106;2022-10-04T23:19:57;2.95;;;0.80;;
74959;SDS011;63518;49.572;1.106;2022-10-04T23:22:29;3.72;;;0.70;;
74959;SDS011;63518;49.572;1.106;2022-10-04T23:24:57;3.22;;;0.82;;
74959;SDS011;63518;49.572;1.106;2022-10-04T23:27:24;3.25;;;0.75;;
74959;SDS011;63518;49.572;1.106;2022-10-04T23:29:55;3.65;;;0.70;;
74959;SDS011;63518;49.572;1.106;2022-10-04T23:32:26;5.03;;;0.90;;
74959;SDS011;63518;49.572;1.106;2022-10-04T23:34:54;3.13;;;0.82;;
74959;SDS011;63518;49.572;1.106;2022-10-04T23:37:24;4.07;;;0.93;;
74959;SDS011;63518;49.572;1.106;2022-10-04T23:39:55;3.03;;;0.90;;
74959;SDS011;63518;49.572;1.106;2022-10-04T23:42:23;3.78;;;0.80;;
74959;SDS011;63518;49.572;1.106;2022-10-04T23:44:57;2.63;;;0.68;;
74959;SDS011;63518;49.572;1.106;2022-10-04T23:47:33;3.15;;;0.82;;
74959;SDS011;63518;49.572;1.106;2022-10-04T23:50:11;3.83;;;0.88;;
74959;SDS011;63518;49.572;1.106;2022-10-04T23:52:45;3.30;;;1.05;;
74959;SDS011;63518;49.572;1.106;2022-10-04T23:55:16;3.65;;;1.00;;
74959;SDS011;63518;49.572;1.106;2022-10-04T23:57:45;3.80;;;0.80;;
